createdAt,value
2018-07-07T00:00:48.684Z,4.27
2018-07-07T00:03:17.296Z,3.73
2018-07-07T00:05:45.529Z,9.80
2018-07-07T00:08:14.151Z,5.20
2018-07-07T00:10:42.640Z,8.57
2018-07-07T00:13:10.919Z,5.07
2018-07-07T00:15:39.214Z,7.17
2018-07-07T00:18:07.730Z,8.33
2018-07-07T00:20:36.309Z,5.93
2018-07-07T00:23:04.879Z,7.40
2018-07-07T00:25:33.507Z,9.97
2018-07-07T00:28:02.052Z,9.00
2018-07-07T00:30:30.627Z,7.43
2018-07-07T00:32:59.223Z,7.50
2018-07-07T00:35:27.772Z,10.67
2018-07-07T00:37:56.389Z,7.63
2018-07-07T00:40:24.925Z,5.97
2018-07-07T00:42:53.254Z,10.50
2018-07-07T00:45:21.874Z,8.30
2018-07-07T00:47:50.163Z,8.83
2018-07-07T00:50:18.390Z,7.00
2018-07-07T00:52:46.955Z,8.07
2018-07-07T00:55:15.499Z,8.07
2018-07-07T00:57:43.787Z,9.37
2018-07-07T01:00:12.364Z,9.30
2018-07-07T01:02:40.926Z,6.27
2018-07-07T01:05:13.609Z,7.00
2018-07-07T01:07:42.205Z,8.60
2018-07-07T01:10:10.446Z,9.10
2018-07-07T01:12:38.999Z,5.47
2018-07-07T01:15:07.584Z,5.67
2018-07-07T01:17:36.135Z,6.00
2018-07-07T01:20:04.414Z,6.40
2018-07-07T01:22:32.936Z,6.27
2018-07-07T01:25:01.492Z,9.63
2018-07-07T01:27:30.027Z,9.77
2018-07-07T01:29:58.587Z,7.90
2018-07-07T01:32:27.110Z,6.93
2018-07-07T01:34:55.394Z,7.57
2018-07-07T01:37:23.939Z,7.53
2018-07-07T01:39:52.460Z,8.50
2018-07-07T01:42:21.066Z,6.90
2018-07-07T01:44:49.625Z,6.87
2018-07-07T01:47:18.180Z,7.73
2018-07-07T01:49:46.690Z,13.03
2018-07-07T01:52:15.134Z,6.60
2018-07-07T01:54:43.696Z,8.87
2018-07-07T01:57:12.277Z,10.73
2018-07-07T01:59:40.812Z,6.57
2018-07-07T02:02:09.484Z,12.30
2018-07-07T02:04:38.037Z,10.53
2018-07-07T02:07:06.602Z,5.10
2018-07-07T02:09:35.184Z,9.77
2018-07-07T02:12:03.755Z,6.30
2018-07-07T02:14:32.355Z,10.37
2018-07-07T02:17:00.929Z,7.30
2018-07-07T02:19:29.479Z,8.63
2018-07-07T02:21:57.745Z,13.27
2018-07-07T02:24:26.035Z,12.37
2018-07-07T02:26:54.255Z,6.30
2018-07-07T02:29:22.788Z,9.47
2018-07-07T02:31:51.062Z,7.77
2018-07-07T02:34:19.311Z,8.30
2018-07-07T02:36:47.895Z,12.03
2018-07-07T02:39:16.446Z,6.83
2018-07-07T02:41:45.050Z,5.87
2018-07-07T02:44:13.612Z,12.97
2018-07-07T02:46:42.198Z,5.90
2018-07-07T02:49:10.757Z,12.00
2018-07-07T02:51:39.299Z,9.73
2018-07-07T02:54:07.842Z,10.93
2018-07-07T02:56:36.379Z,16.13
2018-07-07T02:59:04.669Z,12.83
2018-07-07T03:01:34.597Z,7.10
2018-07-07T03:04:03.171Z,7.60
2018-07-07T03:06:31.884Z,7.97
2018-07-07T03:09:00.477Z,6.67
2018-07-07T03:11:29.053Z,8.33
2018-07-07T03:13:57.649Z,8.17
2018-07-07T03:16:26.260Z,10.90
2018-07-07T03:18:54.774Z,9.80
2018-07-07T03:21:23.347Z,8.90
2018-07-07T03:23:51.657Z,13.10
2018-07-07T03:26:20.201Z,15.60
2018-07-07T03:28:48.483Z,8.57
2018-07-07T03:31:16.987Z,9.27
2018-07-07T03:33:45.575Z,7.63
2018-07-07T03:36:14.096Z,8.70
2018-07-07T03:38:42.645Z,10.27
2018-07-07T03:41:11.219Z,11.43
2018-07-07T03:43:39.776Z,11.37
2018-07-07T03:46:08.037Z,7.40
2018-07-07T03:48:36.672Z,12.47
2018-07-07T03:51:05.226Z,11.53
2018-07-07T03:53:34.043Z,7.40
2018-07-07T03:56:02.644Z,6.70
2018-07-07T03:58:32.073Z,8.10
2018-07-07T04:01:00.630Z,9.17
2018-07-07T04:03:29.196Z,8.77
2018-07-07T04:05:57.795Z,8.33
2018-07-07T04:08:26.362Z,17.80
2018-07-07T04:10:55.033Z,10.97
2018-07-07T04:13:23.635Z,14.40
2018-07-07T04:15:52.215Z,16.07
2018-07-07T04:18:25.787Z,10.87
2018-07-07T04:20:56.546Z,16.57
2018-07-07T04:23:26.295Z,8.73
2018-07-07T04:25:55.083Z,10.80
2018-07-07T04:28:23.619Z,10.70
2018-07-07T04:30:52.452Z,8.33
2018-07-07T04:33:21.140Z,11.70
2018-07-07T04:35:50.214Z,10.20
2018-07-07T04:38:19.344Z,12.60
2018-07-07T04:40:47.999Z,11.57
2018-07-07T04:43:17.141Z,10.23
2018-07-07T04:45:45.672Z,12.67
2018-07-07T04:48:14.433Z,7.23
2018-07-07T04:50:43.031Z,10.93
2018-07-07T04:53:11.718Z,13.00
2018-07-07T04:55:40.357Z,12.17
2018-07-07T04:58:08.635Z,8.57
2018-07-07T05:00:37.168Z,6.67
2018-07-07T05:03:06.104Z,7.37
2018-07-07T05:05:34.422Z,14.27
2018-07-07T05:08:03.024Z,7.63
2018-07-07T05:10:31.670Z,8.97
2018-07-07T05:13:00.209Z,10.40
2018-07-07T05:15:28.816Z,11.67
2018-07-07T05:17:57.049Z,6.70
2018-07-07T05:20:25.627Z,9.70
2018-07-07T05:22:54.164Z,7.13
2018-07-07T05:25:22.441Z,11.47
2018-07-07T05:27:51.019Z,9.23
2018-07-07T05:30:19.300Z,11.30
2018-07-07T05:32:47.915Z,12.57
2018-07-07T05:35:16.524Z,10.33
2018-07-07T05:37:45.113Z,8.20
2018-07-07T05:40:13.638Z,6.10
2018-07-07T05:42:42.392Z,9.37
2018-07-07T05:45:10.701Z,13.07
2018-07-07T05:47:39.370Z,11.50
2018-07-07T05:50:07.621Z,12.90
2018-07-07T05:52:36.285Z,16.37
2018-07-07T05:55:04.811Z,13.17
2018-07-07T05:57:33.359Z,12.17
2018-07-07T06:00:01.944Z,15.33
2018-07-07T06:02:30.535Z,6.00
2018-07-07T06:04:59.143Z,8.47
2018-07-07T06:07:27.514Z,11.43
2018-07-07T06:09:56.003Z,10.97
2018-07-07T06:12:24.239Z,13.63
2018-07-07T06:14:53.012Z,9.37
2018-07-07T06:17:21.620Z,9.23
2018-07-07T06:19:50.297Z,8.50
2018-07-07T06:22:19.043Z,10.40
2018-07-07T06:24:47.773Z,13.07
2018-07-07T06:27:16.624Z,8.33
2018-07-07T06:29:45.394Z,14.20
2018-07-07T06:32:13.788Z,10.63
2018-07-07T06:34:42.356Z,10.03
2018-07-07T06:37:10.767Z,8.00
2018-07-07T06:39:39.373Z,14.40
2018-07-07T06:42:07.906Z,7.07
2018-07-07T06:44:36.175Z,5.90
2018-07-07T06:47:04.855Z,15.00
2018-07-07T06:49:33.391Z,6.93
2018-07-07T06:52:02.023Z,10.17
2018-07-07T06:54:30.714Z,7.93
2018-07-07T06:56:59.707Z,11.23
2018-07-07T06:59:28.541Z,9.73
2018-07-07T07:01:57.103Z,10.17
2018-07-07T07:04:25.831Z,11.37
2018-07-07T07:06:54.424Z,9.97
2018-07-07T07:09:22.985Z,9.73
2018-07-07T07:11:51.811Z,9.80
2018-07-07T07:14:20.351Z,7.40
2018-07-07T07:16:48.940Z,8.67
2018-07-07T07:19:17.934Z,11.53
2018-07-07T07:21:46.210Z,8.90
2018-07-07T07:24:14.781Z,12.40
2018-07-07T07:26:43.351Z,10.07
2018-07-07T07:29:11.974Z,7.57
2018-07-07T07:31:40.475Z,7.40
2018-07-07T07:34:08.734Z,7.83
2018-07-07T07:36:42.564Z,7.70
2018-07-07T07:39:11.178Z,8.53
2018-07-07T07:41:39.692Z,8.67
2018-07-07T07:44:08.426Z,8.63
2018-07-07T07:46:37.002Z,8.67
2018-07-07T07:49:05.269Z,10.13
2018-07-07T07:51:33.558Z,8.17
2018-07-07T07:54:02.759Z,11.23
2018-07-07T07:56:31.830Z,10.87
2018-07-07T07:59:01.135Z,6.17
2018-07-07T08:01:29.398Z,6.50
2018-07-07T08:03:58.147Z,8.73
2018-07-07T08:06:26.730Z,11.23
2018-07-07T08:08:55.315Z,11.20
2018-07-07T08:11:23.869Z,5.07
2018-07-07T08:13:52.419Z,8.00
2018-07-07T08:16:20.926Z,11.57
2018-07-07T08:18:49.735Z,11.07
2018-07-07T08:21:18.279Z,8.70
2018-07-07T08:23:46.820Z,4.93
2018-07-07T08:26:15.480Z,13.60
2018-07-07T08:28:44.064Z,5.40
2018-07-07T08:31:12.562Z,6.57
2018-07-07T08:33:41.139Z,6.10
2018-07-07T08:36:09.645Z,10.40
2018-07-07T08:38:38.152Z,8.50
2018-07-07T08:41:06.727Z,8.47
2018-07-07T08:43:35.228Z,8.33
2018-07-07T08:46:03.518Z,5.97
2018-07-07T08:48:33.029Z,8.47
2018-07-07T08:51:02.092Z,7.93
2018-07-07T08:53:31.014Z,5.80
2018-07-07T08:55:59.589Z,3.53
2018-07-07T08:58:28.106Z,9.93
2018-07-07T09:00:56.623Z,5.57
2018-07-07T09:03:25.167Z,7.43
2018-07-07T09:05:53.957Z,7.23
2018-07-07T09:08:22.513Z,5.10
2018-07-07T09:10:51.007Z,5.97
2018-07-07T09:13:19.541Z,5.37
2018-07-07T09:15:48.068Z,6.67
2018-07-07T09:18:16.603Z,8.70
2018-07-07T09:20:45.147Z,6.13
2018-07-07T09:23:13.730Z,9.33
2018-07-07T09:25:42.366Z,5.03
2018-07-07T09:28:10.940Z,7.87
2018-07-07T09:30:39.497Z,4.97
2018-07-07T09:33:08.052Z,4.77
2018-07-07T09:35:36.690Z,6.83
2018-07-07T09:38:05.284Z,5.67
2018-07-07T09:40:33.863Z,4.47
2018-07-07T09:43:03.372Z,5.47
2018-07-07T09:45:32.997Z,7.40
2018-07-07T09:48:02.233Z,4.33
2018-07-07T09:50:31.841Z,5.77
2018-07-07T09:53:01.050Z,7.53
2018-07-07T09:55:29.615Z,4.37
2018-07-07T09:57:58.127Z,5.10
2018-07-07T10:00:32.002Z,7.20
2018-07-07T10:03:00.999Z,6.80
2018-07-07T10:05:29.542Z,7.63
2018-07-07T10:07:58.107Z,3.10
2018-07-07T10:10:26.647Z,8.87
2018-07-07T10:12:55.214Z,4.13
2018-07-07T10:15:23.755Z,5.27
2018-07-07T10:17:52.295Z,5.87
2018-07-07T10:20:20.789Z,2.70
2018-07-07T10:22:49.345Z,8.57
2018-07-07T10:25:17.858Z,4.50
2018-07-07T10:27:46.411Z,5.50
2018-07-07T10:30:15.096Z,3.03
2018-07-07T10:32:43.772Z,3.73
2018-07-07T10:35:12.446Z,4.30
2018-07-07T10:37:41.007Z,4.20
2018-07-07T10:40:09.270Z,5.70
2018-07-07T10:42:37.853Z,3.90
2018-07-07T10:45:06.368Z,4.10
2018-07-07T10:47:34.947Z,4.97
2018-07-07T10:50:04.243Z,2.27
2018-07-07T10:52:32.511Z,2.73
2018-07-07T10:55:01.821Z,5.23
2018-07-07T10:57:31.076Z,3.93
2018-07-07T10:59:59.656Z,2.90
2018-07-07T11:02:28.158Z,2.33
2018-07-07T11:04:56.706Z,7.57
2018-07-07T11:07:25.284Z,3.07
2018-07-07T11:09:53.819Z,6.60
2018-07-07T11:12:22.165Z,9.00
2018-07-07T11:14:50.679Z,4.30
2018-07-07T11:17:19.196Z,4.37
2018-07-07T11:19:47.771Z,2.90
2018-07-07T11:22:16.313Z,7.20
2018-07-07T11:24:44.926Z,3.13
2018-07-07T11:27:13.444Z,2.93
2018-07-07T11:29:42.055Z,4.73
2018-07-07T11:32:10.659Z,3.63
2018-07-07T11:34:39.000Z,4.07
2018-07-07T11:37:07.555Z,4.30
2018-07-07T11:39:36.171Z,3.83
2018-07-07T11:42:04.711Z,4.73
2018-07-07T11:44:33.341Z,6.67
2018-07-07T11:47:03.028Z,5.20
2018-07-07T11:49:32.740Z,2.73
2018-07-07T11:52:02.164Z,3.97
2018-07-07T11:54:30.740Z,4.40
2018-07-07T11:56:59.278Z,4.47
2018-07-07T11:59:27.862Z,4.87
2018-07-07T12:01:56.107Z,3.47
2018-07-07T12:04:24.530Z,4.80
2018-07-07T12:06:53.096Z,2.77
2018-07-07T12:09:21.643Z,2.20
2018-07-07T12:11:50.224Z,2.97
2018-07-07T12:14:18.823Z,2.23
2018-07-07T12:16:47.427Z,3.17
2018-07-07T12:19:15.927Z,4.83
2018-07-07T12:21:44.563Z,3.40
2018-07-07T12:24:13.109Z,2.60
2018-07-07T12:26:41.745Z,3.57
2018-07-07T12:29:09.982Z,4.20
2018-07-07T12:31:38.675Z,4.50
2018-07-07T12:34:07.474Z,4.17
2018-07-07T12:36:36.142Z,2.20
2018-07-07T12:39:05.440Z,1.97
2018-07-07T12:41:34.021Z,3.03
2018-07-07T12:44:03.603Z,2.13
2018-07-07T12:46:32.906Z,2.53
2018-07-07T12:49:02.576Z,2.83
2018-07-07T12:51:31.988Z,2.90
2018-07-07T12:54:00.291Z,3.58
2018-07-07T12:56:29.726Z,2.05
2018-07-07T12:58:58.352Z,5.13
2018-07-07T13:01:26.638Z,7.00
2018-07-07T13:03:54.920Z,2.10
2018-07-07T13:06:23.970Z,4.25
2018-07-07T13:08:52.594Z,6.70
2018-07-07T13:11:21.179Z,4.95
2018-07-07T13:13:49.773Z,4.80
2018-07-07T13:16:18.432Z,3.42
2018-07-07T13:18:46.697Z,4.60
2018-07-07T13:21:15.238Z,2.00
2018-07-07T13:23:43.790Z,3.37
2018-07-07T13:26:12.414Z,6.67
2018-07-07T13:28:40.960Z,3.45
2018-07-07T13:31:09.563Z,1.70
2018-07-07T13:33:38.129Z,2.52
2018-07-07T13:36:06.684Z,2.22
2018-07-07T13:38:37.739Z,3.02
2018-07-07T13:41:08.250Z,2.27
2018-07-07T13:43:36.644Z,1.95
2018-07-07T13:46:05.439Z,2.52
2018-07-07T13:48:34.002Z,4.83
2018-07-07T13:51:02.904Z,1.37
2018-07-07T13:53:32.090Z,1.72
2018-07-07T13:56:01.468Z,2.70
2018-07-07T13:58:30.124Z,3.02
2018-07-07T14:00:59.318Z,5.92
2018-07-07T14:03:28.166Z,3.50
2018-07-07T14:05:56.533Z,3.98
2018-07-07T14:08:25.075Z,3.15
2018-07-07T14:10:53.951Z,2.50
2018-07-07T14:13:22.600Z,5.67
2018-07-07T14:15:50.855Z,2.55
2018-07-07T14:18:19.407Z,3.72
2018-07-07T14:20:47.940Z,2.62
2018-07-07T14:23:16.487Z,3.30
2018-07-07T14:25:45.052Z,3.35
2018-07-07T14:28:13.635Z,5.78
2018-07-07T14:30:42.157Z,1.30
2018-07-07T14:33:10.756Z,3.60
2018-07-07T14:35:39.010Z,2.27
2018-07-07T14:38:07.507Z,5.70
2018-07-07T14:40:36.502Z,4.03
2018-07-07T14:43:05.111Z,7.87
2018-07-07T14:45:33.792Z,2.83
2018-07-07T14:48:04.607Z,3.95
2018-07-07T14:50:34.089Z,6.03
2018-07-07T14:53:03.630Z,2.83
2018-07-07T14:55:33.180Z,3.72
2018-07-07T14:58:02.421Z,1.32
2018-07-07T15:00:32.389Z,2.50
2018-07-07T15:03:02.048Z,2.55
2018-07-07T15:05:30.273Z,2.72
2018-07-07T15:07:58.850Z,4.72
2018-07-07T15:10:27.398Z,4.30
2018-07-07T15:12:56.186Z,3.75
2018-07-07T15:15:24.815Z,5.80
2018-07-07T15:17:53.392Z,2.25
2018-07-07T15:20:22.016Z,2.50
2018-07-07T15:22:50.589Z,3.58
2018-07-07T15:25:19.163Z,4.90
2018-07-07T15:27:47.722Z,3.15
2018-07-07T15:30:16.307Z,5.80
2018-07-07T15:32:44.886Z,3.83
2018-07-07T15:35:13.429Z,7.55
2018-07-07T15:37:41.771Z,2.87
2018-07-07T15:40:10.354Z,5.28
2018-07-07T15:42:38.926Z,6.80
2018-07-07T15:45:07.470Z,4.25
2018-07-07T15:47:36.047Z,5.15
2018-07-07T15:50:04.409Z,7.35
2018-07-07T15:52:33.423Z,6.40
2018-07-07T15:55:03.048Z,3.92
2018-07-07T15:57:32.165Z,6.22
2018-07-07T16:00:00.798Z,3.35
2018-07-07T16:02:29.101Z,3.13
2018-07-07T16:04:57.751Z,4.22
2018-07-07T16:07:26.006Z,4.67
2018-07-07T16:09:54.606Z,2.30
2018-07-07T16:12:23.216Z,3.42
2018-07-07T16:14:51.775Z,7.17
2018-07-07T16:17:20.354Z,6.83
2018-07-07T16:19:48.856Z,6.97
2018-07-07T16:22:17.411Z,4.70
2018-07-07T16:24:45.960Z,8.40
2018-07-07T16:27:14.501Z,3.60
2018-07-07T16:29:42.799Z,9.38
2018-07-07T16:32:11.376Z,8.13
2018-07-07T16:34:40.009Z,11.33
2018-07-07T16:37:08.571Z,12.88
2018-07-07T16:39:37.203Z,3.77
2018-07-07T16:42:05.484Z,4.47
2018-07-07T16:44:33.863Z,4.73
2018-07-07T16:47:03.182Z,4.73
2018-07-07T16:49:32.651Z,4.60
2018-07-07T16:52:02.452Z,4.10
2018-07-07T16:54:32.077Z,4.37
2018-07-07T16:57:01.139Z,4.97
2018-07-07T16:59:30.366Z,3.77
2018-07-07T17:02:00.257Z,4.33
2018-07-07T17:04:28.952Z,3.62
2018-07-07T17:06:57.590Z,2.97
2018-07-07T17:09:26.200Z,4.13
2018-07-07T17:11:54.808Z,4.60
2018-07-07T17:14:23.601Z,2.23
2018-07-07T17:16:52.705Z,7.23
2018-07-07T17:19:21.362Z,5.40
2018-07-07T17:21:49.960Z,5.70
2018-07-07T17:24:18.557Z,3.57
2018-07-07T17:26:46.891Z,2.73
2018-07-07T17:29:15.469Z,3.23
2018-07-07T17:31:44.373Z,7.03
2018-07-07T17:34:13.007Z,5.07
2018-07-07T17:36:41.594Z,5.17
2018-07-07T17:39:09.867Z,3.97
2018-07-07T17:41:38.079Z,4.03
2018-07-07T17:44:06.828Z,3.73
2018-07-07T17:46:35.535Z,4.30
2018-07-07T17:49:04.711Z,1.60
2018-07-07T17:51:34.296Z,8.27
2018-07-07T17:54:03.546Z,2.70
2018-07-07T17:56:32.140Z,3.00
2018-07-07T17:59:01.227Z,3.83
2018-07-07T18:01:29.764Z,3.37
2018-07-07T18:03:58.388Z,3.57
2018-07-07T18:06:26.982Z,5.37
2018-07-07T18:08:55.506Z,4.13
2018-07-07T18:11:24.048Z,4.47
2018-07-07T18:13:52.671Z,2.40
2018-07-07T18:16:21.233Z,3.47
2018-07-07T18:18:49.804Z,7.10
2018-07-07T18:21:18.376Z,3.33
2018-07-07T18:23:46.988Z,5.70
2018-07-07T18:26:15.827Z,2.77
2018-07-07T18:28:44.374Z,5.80
2018-07-07T18:31:13.030Z,6.17
2018-07-07T18:33:41.572Z,5.17
2018-07-07T18:36:10.191Z,4.67
2018-07-07T18:38:38.791Z,4.83
2018-07-07T18:41:07.399Z,5.33
2018-07-07T18:43:35.635Z,5.10
2018-07-07T18:46:04.213Z,2.07
2018-07-07T18:48:32.853Z,2.90
2018-07-07T18:51:02.465Z,6.53
2018-07-07T18:53:32.115Z,6.63
2018-07-07T18:56:01.164Z,9.57
2018-07-07T18:58:29.791Z,5.17
2018-07-07T19:00:58.370Z,4.67
2018-07-07T19:03:26.897Z,7.50
2018-07-07T19:05:55.456Z,3.13
2018-07-07T19:08:24.018Z,5.23
2018-07-07T19:10:52.604Z,3.40
2018-07-07T19:13:21.192Z,3.87
2018-07-07T19:15:49.773Z,2.20
2018-07-07T19:18:18.350Z,4.00
2018-07-07T19:20:52.256Z,4.87
2018-07-07T19:23:26.223Z,5.47
2018-07-07T19:26:00.197Z,4.20
2018-07-07T19:28:28.803Z,3.80
2018-07-07T19:30:57.347Z,3.50
2018-07-07T19:34:31.833Z,6.70
2018-07-07T19:37:05.805Z,6.07
2018-07-07T19:39:34.414Z,6.13
2018-07-07T19:42:02.660Z,5.77
2018-07-07T19:44:31.248Z,3.00
2018-07-07T19:46:59.907Z,2.40
2018-07-07T19:49:28.478Z,3.57
2018-07-07T19:51:57.042Z,3.60
2018-07-07T19:54:25.622Z,3.30
2018-07-07T19:56:54.471Z,3.40
2018-07-07T19:59:22.981Z,4.57
2018-07-07T20:01:51.235Z,5.10
2018-07-07T20:04:19.783Z,3.23
2018-07-07T20:06:48.392Z,4.60
2018-07-07T20:09:17.138Z,3.43
2018-07-07T20:11:46.166Z,3.47
2018-07-07T20:14:23.323Z,6.20
2018-07-07T20:17:07.854Z,4.23
2018-07-07T20:19:53.116Z,4.43
2018-07-07T20:22:21.434Z,2.90
2018-07-07T20:24:50.031Z,7.47
2018-07-07T20:27:24.752Z,4.43
2018-07-07T20:29:53.283Z,5.77
2018-07-07T20:32:53.566Z,2.67
2018-07-07T20:35:22.170Z,5.20
2018-07-07T20:37:50.748Z,4.37
2018-07-07T20:40:19.388Z,3.57
2018-07-07T20:42:47.975Z,3.50
2018-07-07T20:45:16.585Z,4.97
2018-07-07T20:47:45.198Z,2.67
2018-07-07T20:50:13.819Z,4.13
2018-07-07T20:52:42.519Z,3.53
2018-07-07T20:55:11.267Z,7.03
2018-07-07T20:57:39.955Z,4.13
2018-07-07T21:00:08.575Z,5.70
2018-07-07T21:02:37.125Z,5.87
2018-07-07T21:05:05.426Z,3.57
2018-07-07T21:07:34.649Z,4.80
2018-07-07T21:10:04.416Z,4.40
2018-07-07T21:12:32.853Z,4.37
2018-07-07T21:15:02.073Z,2.50
2018-07-07T21:17:31.260Z,5.47
2018-07-07T21:19:59.848Z,4.93
2018-07-07T21:22:28.433Z,3.93
2018-07-07T21:24:57.063Z,3.30
2018-07-07T21:27:25.629Z,3.67
2018-07-07T21:29:54.236Z,3.83
2018-07-07T21:32:22.863Z,4.70
2018-07-07T21:34:51.371Z,7.27
2018-07-07T21:37:19.666Z,3.03
2018-07-07T21:39:48.201Z,5.50
2018-07-07T21:42:16.821Z,6.67
2018-07-07T21:44:45.061Z,5.93
2018-07-07T21:47:13.623Z,5.60
2018-07-07T21:49:42.270Z,5.67
2018-07-07T21:52:10.826Z,5.97
2018-07-07T21:54:39.367Z,4.23
2018-07-07T21:57:07.967Z,6.87
2018-07-07T21:59:36.490Z,4.33
2018-07-07T22:02:10.326Z,4.27
2018-07-07T22:04:44.422Z,4.60
2018-07-07T22:07:18.213Z,6.17
2018-07-07T22:09:46.512Z,3.57
2018-07-07T22:12:15.098Z,8.17
2018-07-07T22:14:43.741Z,5.17
2018-07-07T22:17:12.304Z,5.43
2018-07-07T22:19:40.834Z,3.33
2018-07-07T22:22:10.457Z,4.63
2018-07-07T22:24:40.027Z,7.17
2018-07-07T22:27:11.688Z,3.33
2018-07-07T22:29:39.931Z,8.53
2018-07-07T22:32:13.875Z,4.40
2018-07-07T22:34:42.338Z,4.13
2018-07-07T22:37:10.951Z,5.87
2018-07-07T22:39:40.968Z,5.13
2018-07-07T22:42:11.627Z,6.47
2018-07-07T22:44:41.187Z,5.17
2018-07-07T22:47:09.819Z,5.13
2018-07-07T22:49:38.454Z,8.13
2018-07-07T22:52:07.784Z,3.40
2018-07-07T22:54:36.397Z,2.43
2018-07-07T22:57:05.026Z,3.43
2018-07-07T22:59:33.577Z,3.70
2018-07-07T23:02:02.756Z,6.33
2018-07-07T23:04:32.156Z,5.07
2018-07-07T23:07:01.222Z,5.70
2018-07-07T23:09:29.834Z,4.67
2018-07-07T23:11:58.474Z,7.30
2018-07-07T23:14:26.750Z,2.67
2018-07-07T23:16:57.462Z,6.23
2018-07-07T23:19:26.224Z,9.60
2018-07-07T23:21:54.832Z,6.30
2018-07-07T23:24:23.353Z,5.97
2018-07-07T23:26:52.021Z,4.17
2018-07-07T23:29:20.263Z,6.63
2018-07-07T23:31:48.827Z,5.43
2018-07-07T23:34:17.435Z,6.00
2018-07-07T23:36:45.999Z,5.23
2018-07-07T23:39:14.594Z,7.53
2018-07-07T23:41:43.222Z,6.80
2018-07-07T23:44:11.473Z,5.07
2018-07-07T23:46:40.072Z,6.83
2018-07-07T23:49:08.322Z,4.93
2018-07-07T23:51:36.894Z,4.40
2018-07-07T23:54:05.458Z,3.17
2018-07-07T23:56:34.011Z,5.23
2018-07-07T23:59:03.331Z,7.17
